CheckWX is a tool to help pilots better visualize weather data.  It is not intended as a substitute for an official pre-flight weather briefing.

22:52:52 UTC

CYZT TAF
Port Hardy Airport
Port Hardy, Canada
TAF CYZT 301838Z 3019/3107 19008KT P6SM SCT020 BKN050 TEMPO 3019/3107 P6SM -SHRA BKN020 BKN050 RMK NXT FCST BY 310100Z

Mar-30@
19:00 UTC

Mar-30 @ 19:00 UTC

Mar-31@
07:00 UTC

Mar-31 @ 07:00 UTC

TAF CYZT 301838Z 3019/3107 19008KT P6SM SCT020 BKN050
Wind
  • 190° at 8 KTS
Cloud Levels
  • Scattered at 2,000' AGL
  • Broken at 5,000' AGL

Mar-30@
19:00 UTC

Mar-30 @ 19:00 UTC

Mar-31@
07:00 UTC

Mar-31 @ 07:00 UTC

TEMPO 3019/3107 P6SM -SHRA BKN020 BKN050 RMK NXT FCST BY 310100Z

Temporary

Temporary Changes expected for less than half the time period

Conditions
Light Showers, Rain
Cloud Levels
  • Broken at 2,000' AGL
  • Broken at 5,000' AGL